createdAt,value
2023-11-19T00:00:14.247Z,0.50
2023-11-19T00:02:41.965Z,0.73
2023-11-19T00:05:10.277Z,1.03
2023-11-19T00:07:37.739Z,1.57
2023-11-19T00:10:08.065Z,2.03
2023-11-19T00:12:35.054Z,1.43
2023-11-19T00:15:02.252Z,0.60
2023-11-19T00:17:29.047Z,0.20
2023-11-19T00:19:55.569Z,2.40
2023-11-19T00:22:22.988Z,0.20
2023-11-19T00:24:49.687Z,0.30
2023-11-19T00:27:17.694Z,0.60
2023-11-19T00:29:45.966Z,0.20
2023-11-19T00:32:12.982Z,0.20
2023-11-19T00:34:40.018Z,0.90
2023-11-19T00:37:06.636Z,0.30
2023-11-19T00:39:33.205Z,0.40
2023-11-19T00:41:59.762Z,0.20
2023-11-19T00:44:26.480Z,0.20
2023-11-19T00:46:53.079Z,0.10
2023-11-19T00:49:19.660Z,0.47
2023-11-19T00:51:46.883Z,0.43
2023-11-19T00:54:13.462Z,0.30
2023-11-19T00:56:41.042Z,0.20
2023-11-19T00:59:07.584Z,0.20
2023-11-19T01:01:34.241Z,0.43
2023-11-19T01:04:00.923Z,0.33
2023-11-19T01:06:32.150Z,1.53
2023-11-19T01:08:59.621Z,0.27
2023-11-19T01:11:26.843Z,0.67
2023-11-19T01:13:53.577Z,1.03
2023-11-19T01:16:20.751Z,0.10
2023-11-19T01:18:49.612Z,0.10
2023-11-19T01:21:16.955Z,0.10
2023-11-19T01:23:46.913Z,0.10
2023-11-19T01:26:13.841Z,0.17
2023-11-19T01:28:51.951Z,0.53
2023-11-19T01:31:19.369Z,0.20
2023-11-19T01:33:46.004Z,0.10
2023-11-19T01:36:15.452Z,0.10
2023-11-19T01:38:42.655Z,0.97
2023-11-19T01:41:09.861Z,0.83
2023-11-19T01:43:39.476Z,1.33
2023-11-19T01:46:08.100Z,0.20
2023-11-19T01:48:36.293Z,0.40
2023-11-19T01:51:04.864Z,0.20
2023-11-19T01:53:32.943Z,0.20
2023-11-19T01:55:59.642Z,2.00
2023-11-19T01:58:26.424Z,0.10
2023-11-19T02:00:53.171Z,0.10
2023-11-19T02:03:21.265Z,0.20
2023-11-19T02:05:50.460Z,0.27
2023-11-19T02:08:17.221Z,0.30
2023-11-19T02:10:44.373Z,0.50
2023-11-19T02:13:11.413Z,2.33
2023-11-19T02:15:38.174Z,0.43
2023-11-19T02:18:28.758Z,0.53
2023-11-19T02:20:56.706Z,1.10
2023-11-19T02:23:24.030Z,0.70
2023-11-19T02:26:11.227Z,1.77
2023-11-19T02:28:38.477Z,0.77
2023-11-19T02:31:11.747Z,0.20
2023-11-19T02:33:39.712Z,0.30
2023-11-19T02:36:08.096Z,0.43
2023-11-19T02:38:36.707Z,0.30
2023-11-19T02:41:07.752Z,0.40
2023-11-19T02:43:35.325Z,2.00
2023-11-19T02:47:12.598Z,0.40
2023-11-19T02:49:39.815Z,0.30
2023-11-19T02:52:07.224Z,2.13
2023-11-19T02:54:36.084Z,0.53
2023-11-19T02:57:04.792Z,0.40
2023-11-19T02:59:40.048Z,1.23
2023-11-19T03:02:13.068Z,0.30
2023-11-19T03:04:41.205Z,0.30
2023-11-19T03:07:10.537Z,0.53
2023-11-19T03:09:37.225Z,0.40
2023-11-19T03:12:05.472Z,0.63
2023-11-19T03:14:36.554Z,0.97
2023-11-19T03:17:04.625Z,0.40
2023-11-19T03:19:31.417Z,0.40
2023-11-19T03:21:58.075Z,0.43
2023-11-19T03:24:26.116Z,0.40
2023-11-19T03:26:52.830Z,0.53
2023-11-19T03:29:19.443Z,0.57
2023-11-19T03:31:45.984Z,0.40
2023-11-19T03:34:12.763Z,1.27
2023-11-19T03:36:40.922Z,0.50
2023-11-19T03:39:07.764Z,0.70
2023-11-19T03:44:04.008Z,0.60
2023-11-19T03:46:31.374Z,1.13
2023-11-19T03:48:58.488Z,0.80
2023-11-19T03:51:25.109Z,1.10
2023-11-19T03:53:52.447Z,1.30
2023-11-19T03:56:19.208Z,1.10
2023-11-19T03:58:45.796Z,1.30
2023-11-19T04:01:16.134Z,1.73
2023-11-19T04:06:12.434Z,2.67
2023-11-19T04:08:39.195Z,3.67
2023-11-19T04:11:06.485Z,2.60
2023-11-19T04:13:33.578Z,2.47
2023-11-19T04:16:00.264Z,3.77
2023-11-19T04:18:27.512Z,2.90
2023-11-19T04:20:54.090Z,18.73
2023-11-19T04:23:20.597Z,7.50
2023-11-19T04:25:47.340Z,5.13
2023-11-19T04:28:13.932Z,4.60
2023-11-19T04:30:41.487Z,4.00
2023-11-19T04:33:08.129Z,5.27
2023-11-19T04:35:34.719Z,3.90
2023-11-19T04:38:01.312Z,3.27
2023-11-19T04:40:27.887Z,6.93
2023-11-19T04:42:54.487Z,9.83
2023-11-19T04:45:21.440Z,4.63
2023-11-19T04:47:47.986Z,3.17
2023-11-19T04:50:14.586Z,3.77
2023-11-19T04:52:41.451Z,8.27
2023-11-19T04:55:08.499Z,3.70
2023-11-19T04:57:35.114Z,17.43
2023-11-19T05:00:01.759Z,14.73
2023-11-19T05:02:28.854Z,8.00
2023-11-19T05:04:55.623Z,13.80
2023-11-19T05:07:22.341Z,3.10
2023-11-19T05:09:49.164Z,2.60
2023-11-19T05:12:16.141Z,3.67
2023-11-19T05:14:50.860Z,1.90
2023-11-19T05:17:19.694Z,3.50
2023-11-19T05:19:46.839Z,3.90
2023-11-19T05:22:14.458Z,5.50
2023-11-19T05:24:42.433Z,4.17
2023-11-19T05:27:09.177Z,2.20
2023-11-19T05:29:35.795Z,3.60
2023-11-19T05:32:02.923Z,4.60
2023-11-19T05:34:30.137Z,3.07
2023-11-19T05:36:56.772Z,2.73
2023-11-19T05:39:23.317Z,5.80
2023-11-19T05:41:49.906Z,6.10
2023-11-19T05:44:16.511Z,3.30
2023-11-19T05:46:44.536Z,5.07
2023-11-19T05:49:12.338Z,4.50
2023-11-19T05:51:39.998Z,4.07
2023-11-19T05:54:11.554Z,3.17
2023-11-19T05:56:38.224Z,4.03
2023-11-19T05:59:08.321Z,4.37
2023-11-19T06:01:36.550Z,4.50
2023-11-19T06:04:03.505Z,5.43
2023-11-19T06:06:31.310Z,3.13
2023-11-19T06:08:57.908Z,3.57
2023-11-19T06:11:27.930Z,4.57
2023-11-19T06:13:54.588Z,3.63
2023-11-19T06:16:21.483Z,5.23
2023-11-19T06:18:48.161Z,8.30
2023-11-19T06:21:14.783Z,5.03
2023-11-19T06:23:41.551Z,5.13
2023-11-19T06:26:08.265Z,4.50
2023-11-19T06:28:35.155Z,5.90
2023-11-19T06:31:01.962Z,3.17
2023-11-19T06:33:28.604Z,2.63
2023-11-19T06:35:55.818Z,4.93
2023-11-19T06:38:24.591Z,4.70
2023-11-19T06:40:54.599Z,4.87
2023-11-19T06:43:22.176Z,3.70
2023-11-19T06:45:48.932Z,4.97
2023-11-19T06:48:15.508Z,4.97
2023-11-19T06:50:43.198Z,3.83
2023-11-19T06:53:11.572Z,2.83
2023-11-19T06:55:38.506Z,4.63
2023-11-19T06:58:05.112Z,2.87
2023-11-19T07:00:33.644Z,2.90
2023-11-19T07:03:01.419Z,2.77
2023-11-19T07:05:29.259Z,3.03
2023-11-19T07:07:56.838Z,4.53
2023-11-19T07:10:23.468Z,8.13
2023-11-19T07:12:51.371Z,4.70
2023-11-19T07:15:18.822Z,4.73
2023-11-19T07:17:46.553Z,2.70
2023-11-19T07:20:16.449Z,3.87
2023-11-19T07:22:47.349Z,2.53
2023-11-19T07:25:14.712Z,2.57
2023-11-19T07:27:41.316Z,2.93
2023-11-19T07:30:11.017Z,2.57
2023-11-19T07:32:40.282Z,1.53
2023-11-19T07:35:07.994Z,1.97
2023-11-19T07:37:35.130Z,1.00
2023-11-19T07:40:01.709Z,1.60
2023-11-19T07:42:28.487Z,1.90
2023-11-19T07:44:56.813Z,2.77
2023-11-19T07:47:24.477Z,1.90
2023-11-19T07:49:53.885Z,2.33
2023-11-19T07:52:22.232Z,1.63
2023-11-19T07:54:49.271Z,2.50
2023-11-19T07:57:16.485Z,5.27
2023-11-19T07:59:43.231Z,5.10
2023-11-19T08:02:10.295Z,2.87
2023-11-19T08:04:37.142Z,1.83
2023-11-19T08:07:04.558Z,3.30
2023-11-19T08:09:31.889Z,1.90
2023-11-19T08:11:58.473Z,2.00
2023-11-19T08:14:25.646Z,1.87
2023-11-19T08:16:52.337Z,2.72
2023-11-19T08:19:19.129Z,3.30
2023-11-19T08:21:46.183Z,2.03
2023-11-19T08:24:12.790Z,4.10
2023-11-19T08:26:39.726Z,2.80
2023-11-19T08:29:07.658Z,7.07
2023-11-19T08:31:34.225Z,1.70
2023-11-19T08:34:00.796Z,4.15
2023-11-19T08:36:29.008Z,4.32
2023-11-19T08:38:55.691Z,6.10
2023-11-19T08:41:22.814Z,5.28
2023-11-19T08:43:51.701Z,5.32
2023-11-19T08:46:18.500Z,3.85
2023-11-19T08:48:45.237Z,5.22
2023-11-19T08:51:12.176Z,4.93
2023-11-19T08:53:38.690Z,5.03
2023-11-19T08:56:06.330Z,3.70
2023-11-19T08:58:33.431Z,3.30
2023-11-19T09:01:00.255Z,3.90
2023-11-19T09:03:31.397Z,2.13
2023-11-19T09:05:58.695Z,2.85
2023-11-19T09:08:25.404Z,4.38
2023-11-19T09:10:52.253Z,3.65
2023-11-19T09:13:18.871Z,6.82
2023-11-19T09:15:45.813Z,2.30
2023-11-19T09:18:12.676Z,6.18
2023-11-19T09:20:40.250Z,4.38
2023-11-19T09:23:07.845Z,4.93
2023-11-19T09:28:04.678Z,4.23
2023-11-19T09:30:31.817Z,2.35
2023-11-19T09:32:58.534Z,3.80
2023-11-19T09:35:25.185Z,4.68
2023-11-19T09:37:51.854Z,4.23
2023-11-19T09:40:19.630Z,6.57
2023-11-19T09:42:49.635Z,3.97
2023-11-19T09:45:17.876Z,3.00
2023-11-19T09:47:47.572Z,3.33
2023-11-19T09:50:22.357Z,3.75
2023-11-19T09:52:48.956Z,4.60
2023-11-19T09:55:15.943Z,5.45
2023-11-19T09:57:43.159Z,4.43
2023-11-19T10:00:11.946Z,2.60
2023-11-19T10:02:40.723Z,4.32
2023-11-19T10:05:08.449Z,2.63
2023-11-19T10:07:35.212Z,3.10
2023-11-19T10:10:03.172Z,9.38
2023-11-19T10:12:30.253Z,3.38
2023-11-19T10:14:59.245Z,11.45
2023-11-19T10:17:30.727Z,10.18
2023-11-19T10:19:57.319Z,2.55
2023-11-19T10:22:25.317Z,4.35
2023-11-19T10:24:56.515Z,4.63
2023-11-19T10:27:26.262Z,4.50
2023-11-19T10:29:53.013Z,5.18
2023-11-19T10:32:25.567Z,5.43
2023-11-19T10:35:06.519Z,2.58
2023-11-19T10:37:33.960Z,3.22
2023-11-19T10:40:00.861Z,3.85
2023-11-19T10:42:27.455Z,3.97
2023-11-19T10:44:53.980Z,5.53
2023-11-19T10:47:37.762Z,4.07
2023-11-19T10:50:07.333Z,5.60
2023-11-19T10:52:34.413Z,4.68
2023-11-19T10:55:06.044Z,9.48
2023-11-19T10:57:37.665Z,6.95
2023-11-19T11:00:11.679Z,12.95
2023-11-19T11:02:43.076Z,14.48
2023-11-19T11:05:12.002Z,9.30
2023-11-19T11:07:42.225Z,5.80
2023-11-19T11:10:10.890Z,4.82
2023-11-19T11:12:39.238Z,5.90
2023-11-19T11:15:08.202Z,4.40
2023-11-19T11:17:35.253Z,5.05
2023-11-19T11:20:03.729Z,3.97
2023-11-19T11:22:44.347Z,2.78
2023-11-19T11:25:28.142Z,4.30
2023-11-19T11:28:16.006Z,3.42
2023-11-19T11:31:11.315Z,3.50
2023-11-19T11:34:08.715Z,2.67
2023-11-19T11:37:11.131Z,3.80
2023-11-19T11:39:37.783Z,4.88
2023-11-19T11:42:19.221Z,3.70
2023-11-19T11:45:11.057Z,2.90
2023-11-19T11:47:43.704Z,4.25
2023-11-19T11:50:15.063Z,3.08
2023-11-19T11:53:00.136Z,2.60
2023-11-19T11:55:34.930Z,4.38
2023-11-19T11:58:01.937Z,3.42
2023-11-19T12:00:31.359Z,6.55
2023-11-19T12:03:00.976Z,4.13
2023-11-19T12:05:28.828Z,3.55
2023-11-19T12:08:03.948Z,2.40
2023-11-19T12:10:34.633Z,3.92
2023-11-19T12:13:02.207Z,1.92
2023-11-19T12:15:29.207Z,3.80
2023-11-19T12:17:56.468Z,3.55
2023-11-19T12:22:55.088Z,3.53
2023-11-19T12:25:21.769Z,3.88
2023-11-19T12:27:50.079Z,5.57
2023-11-19T12:30:34.734Z,2.58
2023-11-19T12:33:01.453Z,7.68
2023-11-19T12:35:28.017Z,14.77
2023-11-19T12:37:54.696Z,8.02
2023-11-19T12:40:23.952Z,9.50
2023-11-19T12:42:54.979Z,9.45
2023-11-19T12:45:24.699Z,7.55
2023-11-19T12:47:53.663Z,7.85
2023-11-19T12:50:20.559Z,8.57
2023-11-19T12:52:58.154Z,4.05
2023-11-19T12:55:31.771Z,5.65
2023-11-19T12:57:59.425Z,4.80
2023-11-19T13:00:27.825Z,9.40
2023-11-19T13:02:56.889Z,7.55
2023-11-19T13:05:27.419Z,5.35
2023-11-19T13:08:08.378Z,3.03
2023-11-19T13:10:52.087Z,3.53
2023-11-19T13:13:18.688Z,3.28
2023-11-19T13:15:46.058Z,7.57
2023-11-19T13:18:13.227Z,4.82
2023-11-19T13:20:39.885Z,4.88
2023-11-19T13:23:11.408Z,2.88
2023-11-19T13:25:38.102Z,3.92
2023-11-19T13:28:05.014Z,4.45
2023-11-19T13:30:31.707Z,3.78
2023-11-19T13:32:58.488Z,5.70
2023-11-19T13:35:25.791Z,4.75
2023-11-19T13:37:52.969Z,3.80
2023-11-19T13:40:20.581Z,4.70
2023-11-19T13:42:47.661Z,3.70
2023-11-19T13:45:15.981Z,2.38
2023-11-19T13:47:44.375Z,5.20
2023-11-19T13:50:15.576Z,3.70
2023-11-19T13:52:46.189Z,6.25
2023-11-19T13:55:13.599Z,5.25
2023-11-19T13:57:41.732Z,6.65
2023-11-19T14:00:13.805Z,2.28
2023-11-19T14:02:42.165Z,5.65
2023-11-19T14:05:12.562Z,3.85
2023-11-19T14:07:40.380Z,3.65
2023-11-19T14:10:10.410Z,3.45
2023-11-19T14:12:38.449Z,6.53
2023-11-19T14:15:10.484Z,6.95
2023-11-19T14:17:37.606Z,5.38
2023-11-19T14:20:13.713Z,17.10
2023-11-19T14:22:41.426Z,10.30
2023-11-19T14:25:11.152Z,76.45
2023-11-19T14:27:41.960Z,18.85
2023-11-19T14:30:12.253Z,4.50
2023-11-19T14:32:40.501Z,7.78
2023-11-19T14:35:07.649Z,8.18
2023-11-19T14:37:34.666Z,5.03
2023-11-19T14:40:01.887Z,3.45
2023-11-19T14:42:28.495Z,6.05
2023-11-19T14:44:55.258Z,3.85
2023-11-19T14:47:22.679Z,5.15
2023-11-19T14:49:49.521Z,3.38
2023-11-19T14:52:17.862Z,7.07
2023-11-19T14:54:45.021Z,4.55
2023-11-19T14:57:11.837Z,3.92
2023-11-19T14:59:38.878Z,6.43
2023-11-19T15:02:06.658Z,5.47
2023-11-19T15:04:35.523Z,5.22
2023-11-19T15:07:02.335Z,5.75
2023-11-19T15:09:28.903Z,5.28
2023-11-19T15:11:55.523Z,7.10
2023-11-19T15:14:22.249Z,6.30
2023-11-19T15:16:50.559Z,8.73
2023-11-19T15:19:17.216Z,9.52
2023-11-19T15:21:43.784Z,35.67
2023-11-19T15:24:11.825Z,18.65
2023-11-19T15:26:38.976Z,5.50
2023-11-19T15:29:06.154Z,9.68
2023-11-19T15:31:32.834Z,11.70
2023-11-19T15:33:59.409Z,10.37
2023-11-19T15:36:26.106Z,8.17
2023-11-19T15:38:53.562Z,25.33
2023-11-19T15:41:20.724Z,15.27
2023-11-19T15:43:47.566Z,7.73
2023-11-19T15:46:14.190Z,8.40
2023-11-19T15:48:42.229Z,8.83
2023-11-19T15:51:08.759Z,8.93
2023-11-19T15:53:35.304Z,8.90
2023-11-19T15:56:02.839Z,13.73
2023-11-19T15:58:29.539Z,6.13
2023-11-19T16:00:56.855Z,7.17
2023-11-19T16:03:23.759Z,6.40
2023-11-19T16:06:01.188Z,5.67
2023-11-19T16:08:34.799Z,8.97
2023-11-19T16:11:01.436Z,13.17
2023-11-19T16:13:28.002Z,6.30
2023-11-19T16:15:54.785Z,8.10
2023-11-19T16:18:22.446Z,7.90
2023-11-19T16:20:49.084Z,11.93
2023-11-19T16:23:18.526Z,9.10
2023-11-19T16:25:45.185Z,8.23
2023-11-19T16:28:11.706Z,7.13
2023-11-19T16:30:38.448Z,15.70
2023-11-19T16:33:06.960Z,17.90
2023-11-19T16:35:37.789Z,13.00
2023-11-19T16:38:04.342Z,18.57
2023-11-19T16:40:30.936Z,37.28
2023-11-19T16:42:57.912Z,20.60
2023-11-19T16:45:24.447Z,19.07
2023-11-19T16:47:51.162Z,13.50
2023-11-19T16:50:18.071Z,19.87
2023-11-19T16:52:49.039Z,49.47
2023-11-19T16:55:16.937Z,25.23
2023-11-19T16:57:45.087Z,19.87
2023-11-19T17:00:12.473Z,17.27
2023-11-19T17:05:18.102Z,13.80
2023-11-19T17:07:44.731Z,18.37
2023-11-19T17:10:11.770Z,10.10
2023-11-19T17:12:38.579Z,17.57
2023-11-19T17:15:05.966Z,13.93
2023-11-19T17:17:36.957Z,10.40
2023-11-19T17:20:05.425Z,10.43
2023-11-19T17:22:36.644Z,10.13
2023-11-19T17:25:04.088Z,6.10
2023-11-19T17:27:31.448Z,9.60
2023-11-19T17:29:58.915Z,13.70
2023-11-19T17:32:26.861Z,9.37
2023-11-19T17:34:54.305Z,15.20
2023-11-19T17:37:21.006Z,11.17
2023-11-19T17:39:47.717Z,11.57
2023-11-19T17:42:14.635Z,10.20
2023-11-19T17:44:41.238Z,10.53
2023-11-19T17:47:08.328Z,10.83
2023-11-19T17:49:35.326Z,8.27
2023-11-19T17:52:02.571Z,11.80
2023-11-19T17:54:29.780Z,9.33
2023-11-19T17:56:58.063Z,9.53
2023-11-19T17:59:25.937Z,7.77
2023-11-19T18:01:57.321Z,7.53
2023-11-19T18:04:28.439Z,13.33
2023-11-19T18:06:55.888Z,9.73
2023-11-19T18:09:22.746Z,7.93
2023-11-19T18:11:53.800Z,7.50
2023-11-19T18:14:24.385Z,8.73
2023-11-19T18:16:51.180Z,10.43
2023-11-19T18:19:19.495Z,9.57
2023-11-19T18:21:46.981Z,13.20
2023-11-19T18:24:16.056Z,9.63
2023-11-19T18:26:44.863Z,11.50
2023-11-19T18:29:12.311Z,11.27
2023-11-19T18:31:39.244Z,11.93
2023-11-19T18:34:06.149Z,9.63
2023-11-19T18:36:35.996Z,9.37
2023-11-19T18:39:02.618Z,11.57
2023-11-19T18:41:30.077Z,9.60
2023-11-19T18:43:57.370Z,9.60
2023-11-19T18:46:24.079Z,12.87
2023-11-19T18:48:52.811Z,11.67
2023-11-19T18:51:19.438Z,11.97
2023-11-19T18:53:46.971Z,8.63
2023-11-19T18:56:14.638Z,10.73
2023-11-19T18:58:41.298Z,10.87
2023-11-19T19:01:09.966Z,11.43
2023-11-19T19:03:37.381Z,10.43
2023-11-19T19:06:07.284Z,13.43
2023-11-19T19:08:35.196Z,15.43
2023-11-19T19:11:01.777Z,15.33
2023-11-19T19:13:28.386Z,15.07
2023-11-19T19:15:55.142Z,10.63
2023-11-19T19:18:21.803Z,8.33
2023-11-19T19:20:48.525Z,12.73
2023-11-19T19:23:15.187Z,10.73
2023-11-19T19:25:41.771Z,8.53
2023-11-19T19:30:40.071Z,10.73
2023-11-19T19:33:07.132Z,13.00
2023-11-19T19:35:33.838Z,8.67
2023-11-19T19:38:00.699Z,13.00
2023-11-19T19:40:28.042Z,16.43
2023-11-19T19:42:56.149Z,10.70
2023-11-19T19:45:23.754Z,11.43
2023-11-19T19:47:51.568Z,14.77
2023-11-19T19:50:18.385Z,14.33
2023-11-19T19:52:44.987Z,12.37
2023-11-19T19:55:13.032Z,11.30
2023-11-19T19:57:39.659Z,13.07
2023-11-19T20:00:16.149Z,14.10
2023-11-19T20:02:45.510Z,18.20
2023-11-19T20:05:13.129Z,12.23
2023-11-19T20:07:44.394Z,16.43
2023-11-19T20:10:11.695Z,9.53
2023-11-19T20:12:39.501Z,12.33
2023-11-19T20:15:10.611Z,10.13
2023-11-19T20:17:38.662Z,12.90
2023-11-19T20:20:06.939Z,11.73
2023-11-19T20:22:35.264Z,13.43
2023-11-19T20:25:02.157Z,9.30
2023-11-19T20:27:29.288Z,10.63
2023-11-19T20:29:56.039Z,13.10
2023-11-19T20:32:23.153Z,12.67
2023-11-19T20:34:49.801Z,11.63
2023-11-19T20:37:16.401Z,18.03
2023-11-19T20:39:42.954Z,7.90
2023-11-19T20:42:09.967Z,9.77
2023-11-19T20:44:37.721Z,10.37
2023-11-19T20:47:06.196Z,16.23
2023-11-19T20:49:33.112Z,9.47
2023-11-19T20:52:00.930Z,12.60
2023-11-19T20:57:01.171Z,14.33
2023-11-19T20:59:27.841Z,11.80
2023-11-19T21:01:54.685Z,12.77
2023-11-19T21:04:21.686Z,11.93
2023-11-19T21:09:21.304Z,14.20
2023-11-19T21:11:51.618Z,11.37
2023-11-19T21:14:20.296Z,9.70
2023-11-19T21:16:46.972Z,13.33
2023-11-19T21:19:20.105Z,13.30
2023-11-19T21:21:47.407Z,6.33
2023-11-19T21:24:14.277Z,8.33
2023-11-19T21:26:43.312Z,10.73
2023-11-19T21:29:12.340Z,14.27
2023-11-19T21:34:08.626Z,11.63
2023-11-19T21:36:35.248Z,13.67
2023-11-19T21:39:01.874Z,13.23
2023-11-19T21:41:28.804Z,12.07
2023-11-19T21:46:25.745Z,13.77
2023-11-19T21:48:52.816Z,12.63
2023-11-19T21:51:20.415Z,13.60
2023-11-19T21:53:47.257Z,11.13
2023-11-19T21:56:13.877Z,15.27
2023-11-19T21:58:40.940Z,15.40
2023-11-19T22:01:08.342Z,16.47
2023-11-19T22:03:35.352Z,16.77
2023-11-19T22:06:02.108Z,14.83
2023-11-19T22:08:30.526Z,11.50
2023-11-19T22:10:57.201Z,12.43
2023-11-19T22:13:24.013Z,11.80
2023-11-19T22:15:50.749Z,14.50
2023-11-19T22:18:17.281Z,10.23
2023-11-19T22:20:43.945Z,11.47
2023-11-19T22:23:10.524Z,12.83
2023-11-19T22:25:37.343Z,11.13
2023-11-19T22:28:04.101Z,20.27
2023-11-19T22:30:30.796Z,11.83
2023-11-19T22:32:57.393Z,12.93
2023-11-19T22:35:24.276Z,12.00
2023-11-19T22:37:50.880Z,17.43
2023-11-19T22:40:17.692Z,14.73
2023-11-19T22:42:44.302Z,11.03
2023-11-19T22:45:11.171Z,15.37
2023-11-19T22:47:37.836Z,12.27
2023-11-19T22:50:08.052Z,13.10
2023-11-19T22:52:34.846Z,14.67
2023-11-19T22:55:01.491Z,14.33
2023-11-19T22:57:28.308Z,12.10
2023-11-19T22:59:55.013Z,10.33
2023-11-19T23:02:21.570Z,15.57
2023-11-19T23:04:48.156Z,14.47
2023-11-19T23:07:14.966Z,16.47
2023-11-19T23:09:41.725Z,16.27
2023-11-19T23:12:08.665Z,12.10
2023-11-19T23:14:35.272Z,15.10
2023-11-19T23:17:01.816Z,15.37
2023-11-19T23:19:28.378Z,15.13
2023-11-19T23:21:54.912Z,11.73
2023-11-19T23:24:21.486Z,10.73
2023-11-19T23:26:48.031Z,12.63
2023-11-19T23:29:16.586Z,12.10
2023-11-19T23:31:46.636Z,17.23
2023-11-19T23:34:13.379Z,13.37
2023-11-19T23:36:39.959Z,12.83
2023-11-19T23:39:07.624Z,12.63
2023-11-19T23:41:34.602Z,14.07
2023-11-19T23:44:01.167Z,13.70
2023-11-19T23:46:27.868Z,16.47
2023-11-19T23:51:26.989Z,10.07
2023-11-19T23:53:54.835Z,14.20
2023-11-19T23:56:21.709Z,14.20
2023-11-19T23:58:49.477Z,11.47
